Date,TemperatureHighF,TemperatureAvgF,TemperatureLowF,DewpointHighF,DewpointAvgF,DewpointLowF,HumidityHigh,HumidityAvg,HumidityLow,PressureMaxIn,PressureMinIn,WindSpeedMaxMPH,WindSpeedAvgMPH,GustSpeedMaxMPH,PrecipitationSumIn
2012-1-1,52.0,43.1,36.0,45.0,36.6,28.0,100,78,50,30.06,29.52,31,10,44,0.00
2012-1-2,37.0,31.7,19.0,34.0,22.5,14.0,93,69,51,29.84,29.62,29,15,41,0.00
2012-1-3,19.0,13.2,3.0,14.0,4.6,-2.0,85,68,52,30.22,29.84,15,11,23,0.00
2012-1-4,36.0,21.3,7.0,19.0,8.9,0.0,78,59,33,30.20,29.82,17,7,27,0.00
2012-1-5,36.0,33.2,30.0,28.0,25.4,19.0,86,72,63,29.88,29.76,15,8,21,0.00
2012-1-6,55.0,45.0,36.0,36.0,30.3,25.0,69,56,43,29.76,29.59,17,7,23,0.00
2012-1-7,54.0,45.5,37.0,37.0,33.2,27.0,75,61,53,30.01,29.63,27,11,36,0.00
2012-1-8,37.0,30.8,21.0,28.0,22.8,18.0,92,73,51,30.32,30.01,16,7,21,0.00
2012-1-9,46.0,36.3,21.0,23.0,18.8,12.0,92,51,28,30.28,29.83,12,4,16,0.00
2012-1-10,39.0,38.2,36.0,30.0,27.6,21.0,74,65,48,29.99,29.78,17,9,27,0.00
2012-1-11,50.0,39.9,30.0,37.0,29.2,25.0,93,67,46,29.96,29.67,13,6,22,0.00
2012-1-12,45.0,40.4,37.0,43.0,38.8,36.0,100,93,86,29.67,29.31,14,7,22,0.00
2012-1-13,45.0,28.8,19.0,41.0,25.3,16.0,100,87,79,29.71,29.21,32,19,41,0.00
2012-1-14,25.0,17.5,9.0,19.0,11.6,3.0,85,76,67,30.17,29.71,17,10,25,0.00
2012-1-15,19.0,9.9,-2.0,9.0,3.7,-8.0,92,76,56,30.52,30.17,10,4,0,0.00
2012-1-16,39.0,26.3,3.0,36.0,16.0,0.0,92,66,40,30.51,29.88,18,8,25,0.00
2012-1-17,55.0,42.7,36.0,46.0,37.6,27.0,93,83,65,29.88,29.29,45,12,67,0.00
2012-1-18,36.0,23.9,16.0,28.0,14.1,7.0,92,66,49,30.16,29.58,36,12,50,0.00
2012-1-19,30.0,22.3,16.0,21.0,12.8,9.0,85,67,50,30.11,29.75,16,9,25,0.00
2012-1-20,21.0,18.3,16.0,10.0,8.4,5.0,72,64,52,30.25,29.93,16,7,23,0.00
2012-1-21,30.0,20.7,9.0,19.0,15.8,7.0,92,81,59,30.32,30.03,10,5,0,0.00
2012-1-22,36.0,24.2,7.0,27.0,16.3,3.0,92,73,47,30.36,30.14,15,7,21,0.00
2012-1-23,50.0,41.7,36.0,43.0,34.9,28.0,86,76,70,30.08,29.66,20,12,32,0.00
2012-1-24,41.0,36.7,36.0,37.0,31.5,28.0,93,81,74,30.17,29.74,15,9,25,0.00
2012-1-25,36.0,31.5,30.0,27.0,24.1,21.0,86,73,63,30.34,30.19,18,8,24,0.00
2012-1-26,39.0,33.3,30.0,39.0,30.7,28.0,100,90,74,30.21,29.60,10,4,0,0.00
2012-1-27,50.0,41.0,36.0,48.0,37.5,27.0,100,87,69,29.90,29.28,23,13,38,0.00
2012-1-28,41.0,35.9,30.0,30.0,27.4,25.0,92,71,60,29.95,29.71,29,12,43,0.00
2012-1-29,39.0,32.5,27.0,30.0,23.4,19.0,100,70,51,30.01,29.88,23,12,31,0.00
2012-1-30,36.0,29.1,23.0,28.0,20.7,16.0,92,71,47,30.25,29.96,17,9,24,0.00
2012-1-31,55.0,47.3,30.0,39.0,32.0,21.0,80,55,46,30.03,29.82,15,8,28,0.00
2012-2-1,55.0,47.7,37.0,46.0,37.9,28.0,87,69,47,30.08,29.78,27,14,39,0.00
2012-2-2,37.0,33.0,30.0,30.0,27.6,23.0,86,80,69,30.35,30.06,10,7,18,0.00
2012-2-3,37.0,34.0,30.0,30.0,26.4,21.0,86,73,68,30.47,30.33,13,8,17,0.00
2012-2-4,39.0,35.1,27.0,30.0,27.3,25.0,92,73,55,30.33,30.16,9,5,0,0.00
2012-2-5,36.0,32.3,30.0,27.0,24.7,21.0,86,73,59,30.20,30.11,12,4,16,0.00
2012-2-6,50.0,39.8,32.0,30.0,25.9,19.0,74,59,34,30.11,29.91,23,14,33,0.00
2012-2-7,39.0,33.9,27.0,34.0,28.9,21.0,93,81,69,30.29,29.97,10,7,17,0.00
2012-2-8,30.0,26.6,19.0,21.0,19.3,18.0,92,73,59,30.29,30.10,9,3,0,0.00
2012-2-9,43.0,32.8,27.0,25.0,22.1,19.0,80,66,44,30.12,30.05,20,10,25,0.00
2012-2-10,37.0,32.9,30.0,28.0,21.1,18.0,92,63,47,30.07,29.88,14,6,25,0.00
2012-2-11,30.0,23.1,12.0,28.0,19.1,5.0,100,84,67,29.94,29.76,16,7,21,0.00
2012-2-12,27.0,20.8,16.0,19.0,14.1,9.0,92,75,62,29.93,29.80,24,14,38,0.00
2012-2-13,39.0,31.8,25.0,23.0,18.1,9.0,73,57,39,29.96,29.90,24,16,35,0.00
2012-2-14,37.0,35.1,30.0,34.0,23.5,12.0,93,64,40,29.98,29.91,13,5,17,0.00
2012-2-15,39.0,35.8,30.0,34.0,29.9,27.0,93,79,64,30.24,29.97,15,5,20,0.00
2012-2-16,43.0,36.6,30.0,37.0,32.2,27.0,93,83,74,30.22,29.88,16,6,24,0.00
2012-2-17,43.0,37.7,30.0,36.0,28.6,21.0,80,70,52,30.05,29.92,21,12,29,0.00
2012-2-18,41.0,34.8,30.0,32.0,27.4,21.0,92,75,59,30.11,29.82,21,9,32,0.00
2012-2-19,32.0,29.9,27.0,28.0,24.0,19.0,86,77,63,30.13,30.07,13,7,18,0.00
2012-2-20,37.0,30.2,25.0,21.0,18.3,16.0,79,63,40,30.32,30.10,9,5,0,0.00
2012-2-21,41.0,34.4,25.0,34.0,22.1,18.0,80,62,41,30.30,29.67,16,8,29,0.00
2012-2-22,52.0,40.5,36.0,37.0,33.4,28.0,100,76,46,29.67,29.42,25,8,33,0.00
2012-2-23,45.0,36.2,30.0,34.0,31.0,27.0,93,82,60,29.72,29.41,14,6,21,0.00
2012-2-24,50.0,37.9,32.0,39.0,33.5,27.0,93,85,61,29.67,29.23,41,13,58,0.00
2012-2-25,36.0,31.7,27.0,28.0,22.8,12.0,86,70,46,30.13,29.30,32,21,48,0.00
2012-2-26,36.0,29.1,21.0,21.0,18.8,16.0,79,65,51,30.41,30.13,16,7,23,0.00
2012-2-27,55.0,39.5,25.0,30.0,23.5,19.0,79,54,36,30.28,29.97,30,12,52,0.00
2012-2-28,37.0,33.4,27.0,27.0,22.1,19.0,79,63,55,30.47,30.24,21,9,28,0.00
2012-2-29,39.0,34.5,30.0,37.0,30.1,23.0,100,84,69,30.31,29.57,15,10,21,0.00
2012-3-1,43.0,38.9,37.0,39.0,34.8,30.0,100,84,65,29.89,29.51,24,10,35,0.00
2012-3-2,52.0,42.8,37.0,37.0,33.2,30.0,93,69,46,29.94,29.41,15,7,28,0.00
2012-3-3,50.0,42.5,36.0,45.0,29.8,21.0,87,61,43,29.63,29.26,37,21,47,0.00
2012-3-4,36.0,30.1,19.0,28.0,23.2,14.0,86,75,59,29.80,29.62,18,11,24,0.00
2012-3-5,30.0,20.6,16.0,16.0,10.6,7.0,79,65,43,30.38,29.80,15,9,22,0.00
2012-3-6,43.0,31.5,18.0,19.0,15.7,10.0,78,54,35,30.52,30.26,9,6,17,0.00
2012-3-7,70.0,59.6,41.0,39.0,28.6,19.0,41,31,24,30.25,30.08,20,10,30,0.00
2012-3-8,63.0,56.3,36.0,50.0,37.6,30.0,93,53,33,30.06,29.82,14,10,23,0.00
2012-3-9,37.0,32.9,25.0,30.0,23.5,14.0,80,68,50,30.29,30.00,20,14,31,0.00
2012-3-10,39.0,28.2,19.0,19.0,16.4,12.0,85,62,40,30.55,30.28,20,9,31,0.00
2012-3-11,64.0,50.5,39.0,34.0,25.4,-99.9,80,41,27,30.30,30.23,22,13,32,0.00
2012-3-12,70.0,54.5,36.0,46.0,34.6,28.0,86,52,24,30.26,29.96,8,4,0,0.00
2012-3-13,70.0,61.3,55.0,52.0,48.0,41.0,82,62,43,29.98,29.86,22,12,29,0.00
2012-3-14,63.0,52.8,37.0,36.0,30.8,21.0,93,48,20,30.18,30.06,15,8,20,0.00
2012-3-15,75.0,58.4,43.0,50.0,39.8,28.0,81,52,38,30.18,30.07,15,6,23,0.00
2012-3-16,57.0,55.4,55.0,55.0,47.3,45.0,93,73,66,30.06,30.01,6,4,0,0.00
2012-3-17,57.0,52.7,50.0,52.0,49.8,46.0,100,91,67,30.27,30.20,6,2,0,0.00
2012-3-18,55.0,54.4,52.0,46.0,45.4,45.0,76,70,66,30.19,30.18,5,2,0,0.00
2012-3-19,63.0,58.6,55.0,57.0,55.4,54.0,93,88,82,30.15,30.11,3,1,0,0.00
2012-3-20,75.0,59.8,50.0,55.0,52.8,48.0,100,81,50,30.24,30.17,6,3,0,0.00
2012-3-21,70.0,61.0,52.0,55.0,52.8,50.0,93,76,60,30.29,30.24,5,2,0,0.00
2012-3-22,79.0,66.4,57.0,54.0,53.3,52.0,87,64,41,30.21,30.15,7,2,0,0.00
2012-3-23,55.0,53.5,52.0,54.0,53.0,52.0,100,96,93,30.15,30.14,3,2,0,0.00
2012-3-25,52.0,50.9,50.0,48.0,46.6,46.0,93,86,81,29.86,29.81,8,5,0,0.00
2012-3-26,43.0,37.6,34.0,34.0,21.5,10.0,75,53,37,30.24,29.89,22,16,29,0.00
2012-3-27,50.0,41.6,34.0,16.0,12.3,7.0,40,31,21,30.37,29.95,8,4,0,0.00
2012-3-28,70.0,53.1,39.0,48.0,38.6,16.0,93,62,26,29.95,29.55,21,11,30,0.00
2012-3-29,45.0,38.5,37.0,43.0,33.8,28.0,93,83,69,30.09,29.73,18,12,25,0.00
2012-3-30,45.0,38.2,36.0,34.0,27.9,23.0,93,69,42,30.12,29.92,8,6,0,0.00
2012-3-31,39.0,37.8,36.0,37.0,36.0,34.0,93,93,93,29.91,29.89,8,6,0,0.00
2012-4-1,37.0,34.9,30.0,34.0,32.4,30.0,100,91,86,29.92,29.71,3,1,0,0.00
2012-4-2,46.0,39.4,36.0,36.0,32.1,19.0,100,77,36,29.97,29.76,12,8,0,0.00
2012-4-3,57.0,45.5,30.0,27.0,23.3,19.0,80,45,24,30.02,29.82,8,5,0,0.00
2012-4-4,55.0,46.2,39.0,34.0,29.3,21.0,69,52,39,29.82,29.70,22,10,30,0.00
2012-4-5,43.0,37.5,32.0,30.0,26.9,23.0,80,65,45,30.01,29.84,13,9,21,0.00
2012-4-6,50.0,41.8,32.0,28.0,22.9,14.0,80,51,23,30.13,30.03,16,9,22,0.00
2012-4-7,57.0,43.8,32.0,27.0,23.7,18.0,74,49,22,30.21,30.09,15,8,21,0.00
2012-4-8,57.0,42.8,36.0,36.0,26.2,21.0,70,52,33,30.06,29.78,21,10,30,0.00
2012-4-9,46.0,42.1,39.0,30.0,27.5,25.0,60,55,49,29.78,29.70,25,16,31,0.00
2012-4-10,55.0,45.6,39.0,34.0,29.6,27.0,80,54,37,29.78,29.66,16,12,28,0.00
2012-4-11,46.0,38.9,37.0,36.0,34.3,32.0,93,83,57,29.99,29.82,17,10,0,0.00
2012-4-12,45.0,40.4,37.0,37.0,32.6,28.0,93,74,65,30.17,30.07,8,6,0,0.00
2012-4-13,61.0,48.5,37.0,28.0,27.2,23.0,69,45,29,30.26,30.17,9,7,16,0.00
2012-4-14,68.0,52.6,37.0,41.0,32.0,25.0,80,49,24,30.16,29.96,10,6,17,0.00
2012-4-15,73.0,59.7,57.0,59.0,52.8,48.0,82,77,60,29.97,29.88,13,4,16,0.00
2012-4-16,90.0,71.8,61.0,54.0,49.7,45.0,67,49,24,29.99,29.74,23,9,32,0.00
2012-4-17,61.0,51.8,39.0,45.0,38.8,30.0,70,61,54,30.33,29.99,22,14,35,0.00
2012-4-18,55.0,39.7,30.0,30.0,29.1,27.0,92,69,32,30.35,30.10,6,3,0,0.00
2012-4-19,45.0,45.0,45.0,34.0,34.0,34.0,65,65,65,30.01,30.01,5,5,0,0.00
2012-4-20,81.0,73.9,64.0,45.0,40.5,37.0,45,31,21,29.84,29.67,12,7,20,0.00
2012-4-21,66.0,47.0,37.0,48.0,42.8,37.0,100,87,45,29.95,29.67,13,7,20,0.00
2012-4-22,39.0,38.6,37.0,39.0,36.1,-99.9,100,93,86,29.94,29.74,21,11,28,0.00
2012-4-23,37.0,36.3,36.0,36.0,34.7,34.0,100,93,93,29.74,29.24,18,12,28,0.00
2012-4-24,46.0,39.4,36.0,36.0,34.0,30.0,93,81,56,29.60,29.21,24,14,32,0.00
2012-4-25,55.0,44.6,37.0,37.0,30.9,27.0,86,60,32,29.90,29.60,17,8,28,0.00
2012-4-26,61.0,47.3,37.0,50.0,36.3,30.0,93,67,33,29.87,29.56,17,8,27,0.00
2012-4-27,46.0,38.6,36.0,37.0,28.0,23.0,93,65,48,30.19,29.77,20,13,30,0.00
2012-4-28,54.0,39.9,30.0,32.0,27.5,23.0,93,63,37,30.28,30.16,10,4,17,0.00
2012-4-29,57.0,43.4,30.0,30.0,22.6,-99.9,86,49,22,30.28,30.18,20,8,27,0.00
2012-4-30,61.0,47.4,30.0,46.0,29.1,19.0,92,54,21,30.30,29.96,14,5,18,0.00
2012-5-1,61.0,54.7,50.0,54.0,50.1,46.0,100,84,71,30.09,29.86,13,6,17,0.00
2012-5-2,75.0,62.9,50.0,66.0,55.0,46.0,93,77,53,30.09,29.90,10,5,0,0.00
2012-5-3,81.0,70.1,61.0,64.0,62.3,59.0,100,78,54,30.08,29.86,23,5,36,0.00
2012-5-4,75.0,69.2,63.0,64.0,61.2,55.0,88,75,60,29.98,29.93,23,8,36,0.00
2012-5-5,63.0,54.4,45.0,55.0,43.9,36.0,93,68,44,30.12,29.98,15,7,18,0.00
2012-5-6,70.0,53.4,39.0,45.0,36.9,-99.9,93,61,24,30.13,30.07,12,4,20,0.00
2012-5-7,68.0,57.1,48.0,57.0,49.1,39.0,93,75,44,30.09,29.84,12,5,17,0.00
2012-5-8,70.0,61.0,57.0,64.0,58.0,54.0,100,90,77,29.84,29.73,12,5,0,0.00
2012-5-9,70.0,59.6,52.0,55.0,50.9,43.0,100,76,40,29.79,29.65,16,5,23,0.00
2012-5-10,61.0,52.1,46.0,50.0,38.3,28.0,93,61,33,29.88,29.64,21,12,33,0.00
2012-5-11,70.0,56.4,45.0,43.0,35.9,34.0,70,48,28,30.13,29.88,22,10,33,0.00
2012-5-12,81.0,64.7,50.0,46.0,41.3,37.0,71,45,24,30.20,30.13,16,9,25,0.00
2012-5-13,75.0,63.2,55.0,57.0,49.5,-99.9,82,63,45,30.21,30.12,14,4,21,0.00
2012-5-14,75.0,64.1,57.0,59.0,55.8,54.0,93,76,53,30.12,30.01,8,2,0,0.00
2012-5-15,79.0,66.7,57.0,61.0,56.4,54.0,100,72,41,30.03,29.90,9,2,0,0.00
2012-5-16,75.0,61.1,46.0,57.0,48.8,36.0,93,65,41,30.08,29.82,16,7,25,0.00
2012-5-17,63.0,52.0,39.0,41.0,36.1,30.0,93,58,29,30.20,30.08,13,4,20,0.00
2012-5-18,75.0,57.7,37.0,46.0,39.8,36.0,100,57,25,30.23,30.13,9,3,16,0.00
2012-5-19,84.0,67.4,50.0,54.0,48.7,45.0,87,56,26,30.18,30.13,9,1,0,0.00
2012-5-20,90.0,72.0,52.0,59.0,51.6,-99.9,100,56,27,30.23,30.13,10,3,17,0.00
2012-5-21,81.0,72.1,63.0,64.0,55.9,45.0,82,57,43,30.13,29.95,12,6,18,0.00
2012-5-22,79.0,67.6,61.0,68.0,62.4,57.0,100,84,54,29.95,29.84,12,2,0,0.00
2012-5-23,79.0,67.3,61.0,64.0,61.2,57.0,100,82,54,29.99,29.90,7,1,0,0.00
2012-5-24,82.0,72.3,61.0,66.0,60.0,57.0,100,68,42,30.08,29.99,12,6,18,0.00
2012-5-25,90.0,78.0,66.0,68.0,62.6,57.0,82,61,37,30.07,29.97,14,6,22,0.00
2012-5-26,81.0,71.7,61.0,68.0,55.7,48.0,88,59,38,30.20,30.06,12,3,17,0.00
2012-5-27,82.0,69.7,55.0,63.0,53.4,-99.9,87,61,32,30.19,29.98,6,2,0,0.00
2012-5-28,91.0,75.7,61.0,73.0,64.2,57.0,93,70,46,30.01,29.80,10,3,17,0.00
2012-5-29,90.0,77.9,68.0,72.0,65.7,63.0,88,67,52,29.80,29.67,23,9,40,0.00
2012-5-30,79.0,67.5,55.0,64.0,56.6,46.0,93,70,43,29.84,29.73,10,4,16,0.00
2012-5-31,70.0,58.6,50.0,54.0,48.2,43.0,93,69,45,30.01,29.84,10,6,17,0.00
2012-6-1,63.0,56.8,50.0,61.0,53.4,46.0,100,88,81,30.01,29.60,17,8,28,0.00
2012-6-2,70.0,60.4,55.0,61.0,49.5,45.0,100,69,46,29.74,29.61,18,6,27,0.00
2012-6-3,64.0,58.4,55.0,57.0,50.3,-99.9,93,76,55,29.72,29.66,16,7,24,0.00
2012-6-4,57.0,54.8,52.0,54.0,53.2,50.0,100,92,81,29.88,29.66,13,8,18,0.00
2012-6-5,70.0,58.3,50.0,54.0,50.4,46.0,100,77,49,29.98,29.88,15,4,20,0.00
2012-6-6,75.0,61.3,46.0,57.0,50.7,45.0,100,71,43,30.00,29.93,12,4,21,0.00
2012-6-7,79.0,65.2,50.0,57.0,53.3,48.0,100,68,41,30.01,29.93,10,6,17,0.00
2012-6-8,81.0,69.8,57.0,57.0,52.1,48.0,82,55,32,29.97,29.86,17,10,24,0.00
2012-6-9,75.0,69.1,61.0,66.0,59.4,46.0,100,72,45,29.98,29.87,16,7,22,0.00
2012-6-10,90.0,76.0,63.0,72.0,62.7,-99.9,100,68,40,30.11,29.96,12,3,16,0.00
2012-6-11,90.0,78.3,64.0,70.0,63.1,57.0,100,63,33,30.11,29.99,12,6,21,0.00
2012-6-12,81.0,71.2,61.0,73.0,66.9,50.0,94,87,57,29.99,29.81,17,5,25,0.00
2012-6-13,70.0,60.8,52.0,57.0,50.9,46.0,93,70,46,30.20,29.96,13,7,18,0.00
2012-6-14,79.0,63.0,50.0,57.0,52.3,48.0,100,71,41,30.29,30.20,10,3,16,0.00
2012-6-15,82.0,68.8,52.0,59.0,55.6,50.0,100,66,37,30.30,30.23,7,2,0,0.00
2012-6-16,84.0,71.8,57.0,64.0,57.5,54.0,93,63,39,30.30,30.13,8,2,0,0.00
2012-6-17,82.0,73.0,61.0,61.0,56.5,-99.9,82,59,44,30.13,29.92,13,6,21,0.00
2012-6-18,79.0,72.0,64.0,64.0,60.7,55.0,88,67,57,30.01,29.92,13,8,20,0.00
2012-6-19,90.0,77.6,64.0,72.0,66.7,61.0,94,71,52,30.06,29.99,14,7,24,0.00
2012-6-20,95.0,83.7,75.0,73.0,66.3,61.0,69,56,43,30.11,30.00,13,8,20,0.00
2012-6-21,90.0,82.0,72.0,70.0,64.2,61.0,78,56,43,30.00,29.81,15,7,22,0.00
2012-6-22,82.0,72.9,63.0,66.0,61.1,54.0,88,68,47,29.93,29.83,12,5,9,0.00
2012-6-23,81.0,69.0,57.0,61.0,55.6,52.0,87,64,39,30.05,29.92,13,6,18,0.00
2012-6-24,81.0,69.3,55.0,63.0,56.5,50.0,93,66,34,30.05,29.84,12,3,17,0.00
2012-6-25,70.0,64.1,55.0,61.0,52.8,45.0,93,68,43,29.88,29.80,23,9,29,0.00
2012-6-26,75.0,65.4,55.0,54.0,49.2,45.0,87,59,33,29.89,29.81,20,11,28,0.00
2012-6-27,81.0,69.8,57.0,57.0,51.5,45.0,87,55,30,29.90,29.80,18,10,29,0.00
2012-6-28,90.0,76.0,57.0,66.0,57.7,52.0,87,56,33,29.87,29.70,10,4,0,0.00
2012-6-29,90.0,81.7,73.0,66.0,58.9,52.0,69,48,27,29.75,29.66,16,10,25,0.00
2012-6-30,90.0,81.0,70.0,63.0,57.0,52.0,77,46,27,29.82,29.73,21,10,30,0.00
2012-7-1,88.0,76.8,64.0,63.0,57.2,48.0,82,54,25,29.93,29.81,18,7,24,0.00
2012-7-2,90.0,73.9,61.0,61.0,56.0,50.0,87,57,31,30.03,29.93,14,6,18,0.00
2012-7-3,90.0,74.9,61.0,68.0,59.1,52.0,82,61,29,29.99,29.81,14,4,21,0.00
2012-7-4,95.0,82.3,70.0,73.0,66.7,63.0,83,61,38,29.86,29.76,16,9,23,0.00
2012-7-5,90.0,75.9,63.0,73.0,61.1,52.0,88,62,36,29.94,29.83,13,4,17,0.00
2012-7-6,95.0,79.6,61.0,72.0,63.1,55.0,88,60,34,29.96,29.89,14,5,23,0.00
2012-7-7,84.0,74.8,70.0,72.0,66.7,63.0,94,77,57,30.00,29.88,21,5,24,0.00
2012-7-8,88.0,74.4,63.0,68.0,61.8,55.0,94,68,39,29.97,29.91,14,6,20,0.00
2012-7-9,82.0,71.4,61.0,61.0,52.9,45.0,93,57,28,30.05,29.96,10,4,0,0.00
2012-7-10,82.0,70.4,57.0,63.0,56.3,50.0,93,64,37,30.13,30.02,10,-3,16,0.00
2012-7-11,90.0,70.9,54.0,63.0,56.8,52.0,100,66,35,30.19,30.13,13,2,17,0.00
2012-7-12,93.0,75.2,57.0,68.0,61.0,54.0,93,64,40,30.18,30.12,12,2,16,0.00
2012-7-13,93.0,76.9,61.0,72.0,65.7,59.0,100,71,40,30.20,30.13,13,3,21,0.00
2012-7-14,91.0,80.3,70.0,70.0,65.6,61.0,88,62,43,30.20,30.07,10,4,16,0.00
2012-7-15,82.0,75.2,70.0,77.0,72.4,70.0,100,91,65,30.11,29.95,10,3,0,0.00
2012-7-16,90.0,78.2,70.0,73.0,70.2,64.0,100,79,46,29.97,29.86,14,6,21,0.00
2012-7-17,97.0,85.1,73.0,75.0,68.1,57.0,78,57,44,29.88,29.73,25,12,33,0.00
2012-7-18,82.0,75.2,63.0,73.0,69.4,63.0,100,84,54,29.97,29.79,12,3,16,0.00
2012-7-19,81.0,67.2,57.0,70.0,62.2,57.0,100,86,54,30.03,29.96,13,3,0,0.00
2012-7-20,70.0,65.1,59.0,70.0,61.8,54.0,100,90,72,30.09,29.99,6,2,0,0.00
2012-7-21,82.0,69.8,54.0,70.0,62.2,54.0,100,79,51,30.12,30.03,10,2,0,0.00
2012-7-22,90.0,75.0,61.0,73.0,66.6,61.0,100,77,46,30.11,30.04,10,3,0,0.00
2012-7-23,93.0,82.2,70.0,75.0,71.3,66.0,100,71,49,30.05,29.71,20,10,28,0.00
2012-7-24,86.0,75.7,63.0,73.0,66.7,55.0,100,75,48,29.92,29.71,21,10,33,0.00
2012-7-25,84.0,70.9,57.0,66.0,60.5,55.0,100,72,45,29.99,29.76,9,4,0,0.00
2012-7-26,81.0,71.9,63.0,73.0,70.0,63.0,100,94,74,29.78,29.62,23,7,39,0.00
2012-7-27,81.0,72.2,63.0,72.0,68.8,63.0,100,90,69,29.93,29.68,9,3,0,0.00
2012-7-28,81.0,69.6,63.0,73.0,67.2,63.0,100,92,69,30.02,29.93,13,3,17,0.00
2012-7-29,82.0,71.2,59.0,70.0,62.7,55.0,100,78,44,30.08,30.01,10,4,0,0.00
2012-7-30,90.0,72.6,57.0,70.0,63.3,57.0,100,76,43,30.08,29.99,14,3,17,0.00
2012-7-31,90.0,74.4,63.0,75.0,70.0,63.0,100,87,58,30.01,29.83,13,5,21,0.00
2012-8-1,82.0,72.3,63.0,73.0,67.9,63.0,100,87,65,29.90,29.84,12,4,0,0.00
2012-8-2,88.0,74.3,59.0,73.0,68.0,59.0,100,82,54,29.92,29.87,10,4,18,0.00
2012-8-3,90.0,79.1,66.0,75.0,70.4,64.0,100,77,55,30.08,29.91,8,3,0,0.00
2012-8-4,93.0,81.6,70.0,79.0,73.1,70.0,100,78,55,30.11,30.02,12,6,20,0.00
2012-8-5,90.0,78.9,70.0,77.0,72.8,68.0,100,82,62,30.04,29.89,27,9,31,0.00
2012-8-6,79.0,68.5,57.0,70.0,62.2,57.0,100,81,57,30.13,30.03,12,6,16,0.00
2012-8-7,88.0,70.2,54.0,64.0,58.4,54.0,100,71,39,30.04,29.94,12,3,17,0.00
2012-8-8,90.0,73.4,57.0,73.0,65.3,57.0,100,79,43,29.98,29.92,10,2,17,0.00
2012-8-9,88.0,72.8,63.0,73.0,68.7,63.0,100,88,54,29.93,29.84,8,3,0,0.00
2012-8-10,81.0,70.8,64.0,73.0,69.1,64.0,100,95,69,29.84,29.70,12,5,18,0.00
2012-8-11,79.0,69.9,61.0,70.0,62.3,-99.9,100,80,57,29.90,29.73,18,5,24,0.00
2012-8-12,79.0,69.5,61.0,70.0,64.3,59.0,100,84,65,29.97,29.88,15,7,24,0.00
2012-8-13,82.0,71.0,61.0,70.0,63.9,61.0,100,81,48,30.03,29.96,10,4,16,0.00
2012-8-14,81.0,68.4,63.0,72.0,66.6,63.0,100,95,65,29.97,29.84,9,2,0,0.00
2012-8-15,79.0,67.8,59.0,70.0,64.6,59.0,100,90,65,29.96,29.88,13,4,9,0.00
2012-8-16,82.0,70.6,57.0,70.0,63.0,57.0,100,80,48,29.99,29.83,14,5,18,0.00
2012-8-17,79.0,71.2,61.0,70.0,63.5,57.0,100,77,57,29.91,29.74,14,7,22,0.00
2012-8-18,73.0,63.1,54.0,59.0,54.9,52.0,100,78,46,30.00,29.91,12,5,17,0.00
2012-8-19,79.0,63.4,48.0,61.0,54.0,48.0,100,76,44,30.00,29.89,8,2,0,0.00
2012-8-20,77.0,64.5,54.0,64.0,58.5,54.0,100,82,57,29.98,29.88,12,3,0,0.00
2012-8-21,79.0,65.1,50.0,57.0,53.9,50.0,100,72,39,30.11,29.98,9,3,0,0.00
2012-8-22,82.0,67.3,48.0,64.0,57.8,48.0,100,75,42,30.16,30.10,12,3,18,0.00
2012-8-23,88.0,68.9,54.0,64.0,58.1,54.0,100,73,39,30.18,30.13,10,3,18,0.00
2012-8-24,90.0,72.3,54.0,66.0,61.3,54.0,100,73,40,30.20,30.14,10,3,0,0.00
2012-8-25,90.0,76.2,59.0,70.0,63.7,59.0,100,70,40,30.25,30.17,12,4,17,0.00
2012-8-26,90.0,73.7,61.0,70.0,64.8,61.0,100,75,51,30.28,30.14,10,5,0,0.00
2012-8-27,88.0,73.9,70.0,73.0,68.7,64.0,100,85,54,30.14,29.92,10,4,17,0.00
2012-8-28,81.0,70.7,61.0,70.0,65.7,57.0,100,85,54,30.01,29.90,16,8,22,0.00
2012-8-29,77.0,62.8,54.0,61.0,55.3,52.0,100,80,46,30.09,30.01,9,3,18,0.00
2012-8-30,88.0,68.2,48.0,63.0,57.3,48.0,100,70,40,30.11,30.01,12,5,17,0.00
2012-8-31,93.0,81.1,72.0,72.0,62.1,55.0,88,53,40,30.02,29.88,24,15,41,0.00
2012-9-1,90.0,72.1,57.0,70.0,61.2,55.0,100,71,42,30.13,30.00,10,5,17,0.00
2012-9-2,90.0,69.3,54.0,64.0,58.3,54.0,100,73,38,30.10,30.03,14,2,17,0.00
2012-9-3,82.0,70.8,57.0,73.0,66.8,55.0,100,88,69,30.08,29.99,13,5,21,0.00
2012-9-4,90.0,74.9,70.0,75.0,71.8,70.0,100,91,59,30.00,29.76,15,6,20,0.00
2012-9-5,82.0,72.1,66.0,70.0,67.7,64.0,100,88,58,29.91,29.83,10,2,0,0.00
2012-9-6,90.0,74.4,64.0,73.0,69.7,64.0,100,86,55,29.92,29.82,13,4,17,0.00
2012-9-7,88.0,72.1,59.0,72.0,65.0,59.0,100,81,45,29.95,29.73,8,2,0,0.00
2012-9-8,77.0,66.9,54.0,72.0,64.0,54.0,100,90,78,29.80,29.48,16,8,37,0.00
2012-9-9,72.0,59.2,48.0,61.0,54.2,48.0,100,85,55,30.00,29.80,14,5,20,0.00
2012-9-10,70.0,58.0,48.0,54.0,48.5,45.0,100,74,43,30.16,29.99,17,7,23,0.00
2012-9-11,77.0,60.9,46.0,57.0,51.2,45.0,100,73,41,30.27,30.16,10,4,0,0.00
2012-9-12,84.0,66.0,48.0,61.0,54.6,48.0,100,72,37,30.31,30.23,9,3,0,0.00
2012-9-13,88.0,70.0,54.0,64.0,59.6,54.0,100,73,42,30.31,30.22,12,4,16,0.00
2012-9-14,86.0,66.8,54.0,70.0,61.3,54.0,100,86,42,30.22,30.03,22,6,30,0.00
2012-9-15,70.0,58.1,52.0,57.0,54.1,52.0,100,87,60,30.24,30.14,10,6,17,0.00
2012-9-16,73.0,59.7,48.0,59.0,54.3,48.0,100,84,56,30.16,30.04,10,4,0,0.00
2012-9-17,77.0,66.8,57.0,59.0,54.1,50.0,87,65,43,30.06,29.88,9,6,18,0.00
2012-9-18,73.0,63.1,52.0,70.0,61.5,50.0,100,95,77,29.88,29.48,21,9,28,0.00
2012-9-19,63.0,52.4,45.0,52.0,47.2,45.0,100,85,51,30.18,29.81,12,6,21,0.00
2012-9-20,73.0,59.3,45.0,55.0,49.8,45.0,100,73,46,30.17,29.96,15,7,23,0.00
2012-9-21,75.0,63.0,54.0,64.0,57.0,52.0,100,81,64,29.96,29.86,10,4,16,0.00
2012-9-22,70.0,59.5,48.0,64.0,56.3,48.0,100,89,67,29.94,29.64,18,8,30,0.00
2012-9-23,63.0,51.4,43.0,52.0,43.4,-99.9,100,78,41,30.13,29.93,17,10,28,0.00
2012-9-24,61.0,51.4,39.0,48.0,44.0,39.0,100,77,51,30.16,30.00,16,7,25,0.00
2012-9-25,73.0,62.2,54.0,55.0,46.3,41.0,93,57,40,30.03,29.96,18,9,25,0.00
2012-9-26,72.0,62.5,55.0,64.0,59.9,52.0,100,91,73,30.12,29.93,12,6,21,0.00
2012-9-27,70.0,53.8,43.0,54.0,47.7,43.0,100,82,55,30.25,30.12,10,4,0,0.00
2012-9-28,55.0,49.7,41.0,55.0,49.5,41.0,100,99,93,30.18,30.04,12,2,0,0.00
2012-9-29,63.0,52.0,43.0,55.0,49.3,43.0,100,91,59,30.05,29.94,8,4,0,0.00
2012-9-30,54.0,50.8,43.0,54.0,50.8,43.0,100,100,100,29.95,29.83,10,5,0,0.00
2012-10-1,70.0,57.2,48.0,57.0,53.3,48.0,100,87,64,29.94,29.80,18,9,24,0.00
2012-10-2,70.0,59.9,52.0,70.0,59.7,52.0,100,99,88,29.97,29.89,6,2,0,0.00
2012-10-3,72.0,65.3,61.0,72.0,65.1,61.0,100,99,88,30.13,29.95,6,1,0,0.00
2012-10-4,73.0,64.9,57.0,63.0,59.9,55.0,100,85,56,30.16,30.06,12,4,17,0.00
2012-10-5,73.0,66.4,54.0,64.0,61.6,54.0,100,85,68,30.00,29.89,16,7,24,0.00
2012-10-6,57.0,50.4,39.0,54.0,46.0,36.0,100,86,58,30.03,29.79,17,9,29,0.00
2012-10-7,54.0,45.0,36.0,46.0,41.8,36.0,100,89,66,30.10,30.01,12,4,0,0.00
2012-10-8,57.0,44.9,36.0,46.0,41.2,36.0,100,88,62,30.23,30.10,10,2,0,0.00
2012-10-9,63.0,49.9,36.0,48.0,43.3,36.0,100,80,51,30.23,29.99,9,4,0,0.00
2012-10-10,59.0,49.5,39.0,50.0,44.3,36.0,100,83,62,29.99,29.78,21,8,28,0.00
2012-10-11,57.0,47.5,37.0,39.0,36.5,34.0,93,67,44,30.18,29.97,20,10,28,0.00
2012-10-12,54.0,42.5,30.0,48.0,36.2,27.0,100,80,52,30.43,30.01,20,10,29,0.00
2012-10-13,54.0,41.6,27.0,46.0,31.7,27.0,100,72,37,30.43,29.99,10,5,18,0.00
2012-10-14,77.0,65.1,48.0,64.0,57.5,43.0,100,76,60,29.99,29.66,16,8,29,0.00
2012-10-15,70.0,58.2,46.0,61.0,51.3,43.0,100,78,63,29.78,29.53,21,12,33,0.00
2012-10-16,54.0,45.7,36.0,45.0,39.7,36.0,100,81,58,29.91,29.78,15,8,22,0.00
2012-10-17,70.0,52.9,36.0,50.0,43.6,36.0,100,74,40,29.93,29.80,9,5,0,0.00
2012-10-18,70.0,58.3,48.0,52.0,47.8,45.0,100,70,49,29.88,29.74,18,8,29,0.00
2012-10-19,70.0,54.7,45.0,63.0,53.0,45.0,100,94,72,29.91,29.61,10,4,0,0.00
2012-10-20,59.0,51.2,45.0,54.0,46.5,43.0,100,85,58,29.76,29.61,22,7,27,0.00
2012-10-21,63.0,52.0,46.0,50.0,46.8,45.0,100,84,55,30.07,29.76,23,13,31,0.00
2012-10-22,70.0,53.1,43.0,54.0,48.2,43.0,100,86,52,30.13,30.07,13,6,17,0.00
2012-10-23,54.0,50.6,43.0,54.0,50.6,43.0,100,100,93,30.10,30.02,9,4,0,0.00
2012-10-24,57.0,54.8,50.0,57.0,54.8,50.0,100,100,100,30.13,30.08,5,1,0,0.00
2012-10-25,82.0,67.6,57.0,66.0,60.2,57.0,100,80,50,30.12,30.03,16,6,24,0.00
2012-10-26,79.0,62.9,48.0,63.0,57.2,48.0,100,82,54,30.16,30.03,16,7,24,0.00
2012-10-27,54.0,50.1,46.0,54.0,50.1,46.0,100,100,100,30.15,29.95,14,3,18,0.00
2012-10-28,46.0,44.4,43.0,46.0,44.4,43.0,100,100,100,30.05,29.85,14,8,18,0.00
2012-10-29,54.0,48.4,46.0,54.0,48.4,46.0,100,100,100,29.86,29.05,32,17,45,0.00
2012-10-30,55.0,50.2,41.0,55.0,49.0,41.0,100,96,81,29.41,29.04,30,12,43,0.00
2012-10-31,46.0,41.8,39.0,43.0,39.7,37.0,100,93,75,29.46,29.39,6,2,0,0.00
2012-11-1,48.0,42.9,41.0,46.0,42.2,39.0,100,97,86,29.59,29.43,18,11,27,0.00
2012-11-2,43.0,38.2,36.0,41.0,37.1,34.0,100,96,80,29.84,29.59,17,11,25,0.00
2012-11-3,41.0,36.5,36.0,39.0,35.8,32.0,100,97,86,30.05,29.84,16,11,23,0.00
2012-11-4,39.0,34.9,34.0,36.0,32.8,28.0,100,93,80,30.09,30.04,13,8,17,0.00
2012-11-5,37.0,34.4,34.0,34.0,30.8,27.0,100,87,69,30.18,30.05,10,6,0,0.00
2012-11-6,41.0,33.5,27.0,28.0,27.4,25.0,100,79,56,30.18,30.05,9,-17,0,0.00
2012-11-7,39.0,30.8,19.0,34.0,27.5,19.0,100,89,55,30.09,30.03,13,4,0,0.00
2012-11-8,43.0,34.4,28.0,34.0,29.1,25.0,100,82,52,30.10,30.03,15,8,22,0.00
2012-11-9,48.0,39.4,30.0,43.0,36.7,27.0,100,90,70,30.19,30.07,13,7,17,0.00
2012-11-10,54.0,46.2,39.0,48.0,43.7,39.0,100,90,76,30.29,30.18,10,4,16,0.00
2012-11-11,73.0,60.0,48.0,52.0,46.2,43.0,93,61,43,30.29,30.19,15,6,25,0.00
2012-11-12,70.0,58.1,41.0,57.0,49.0,41.0,100,72,58,30.21,29.94,23,11,32,0.00
2012-11-13,41.0,36.4,34.0,41.0,31.7,28.0,100,84,74,30.51,30.17,20,7,38,0.00
2012-11-14,39.0,34.0,28.0,32.0,28.3,-99.9,100,82,69,30.59,30.47,7,3,0,0.00
2012-11-15,48.0,34.0,27.0,37.0,29.8,27.0,100,87,52,30.47,30.31,6,2,0,0.00
2012-11-16,48.0,34.3,27.0,39.0,31.8,27.0,100,92,66,30.50,30.32,8,2,0,0.00
2012-11-17,54.0,35.6,25.0,43.0,31.9,25.0,100,88,53,30.63,30.50,6,1,0,0.00
2012-11-18,52.0,37.3,28.0,41.0,34.1,28.0,100,90,61,30.63,30.49,9,4,0,0.00
2012-11-19,54.0,38.1,28.0,41.0,34.7,28.0,100,89,58,30.50,30.23,6,2,0,0.00
2012-11-20,48.0,37.5,30.0,43.0,35.3,30.0,100,92,70,30.23,30.12,5,1,0,0.00
2012-11-21,54.0,37.4,28.0,45.0,33.5,28.0,100,88,50,30.24,30.15,5,1,0,0.00
2012-11-22,64.0,43.3,28.0,43.0,34.3,28.0,100,75,39,30.20,29.97,12,3,0,0.00
2012-11-23,57.0,47.0,34.0,48.0,38.2,30.0,100,72,54,29.98,29.65,28,11,38,0.00
2012-11-24,36.0,33.1,30.0,34.0,28.0,25.0,100,82,69,29.88,29.71,22,15,39,0.00
2012-11-25,34.0,32.5,30.0,34.0,28.7,23.0,100,86,74,29.88,29.79,17,10,25,0.00
2012-11-26,39.0,35.1,34.0,32.0,28.6,27.0,93,78,64,30.21,29.84,17,10,23,0.00
2012-11-27,39.0,32.7,28.0,30.0,26.5,23.0,92,77,60,30.28,30.20,8,3,0,0.00
2012-11-28,36.0,33.4,28.0,32.0,27.2,23.0,92,78,69,30.23,30.13,17,8,24,0.00
2012-11-29,48.0,36.3,28.0,34.0,27.2,21.0,100,70,51,30.26,30.17,25,10,33,0.00
2012-11-30,39.0,28.2,27.0,36.0,26.9,25.0,100,94,64,30.41,30.25,15,6,0,0.00
2012-12-1,52.0,37.1,27.0,43.0,34.0,27.0,100,89,66,30.35,30.19,9,5,0,0.00
2012-12-2,54.0,49.5,43.0,54.0,46.2,37.0,100,89,75,30.19,29.91,16,9,24,0.00
2012-12-3,54.0,47.2,41.0,54.0,45.6,41.0,100,94,76,30.23,30.06,10,4,17,0.00
2012-12-4,73.0,60.9,46.0,59.0,54.1,46.0,100,81,53,30.10,29.88,20,8,28,0.00
2012-12-5,46.0,35.5,28.0,46.0,31.3,21.0,100,85,74,30.34,29.95,24,11,31,0.00
2012-12-6,39.0,31.8,21.0,28.0,22.6,-99.9,100,73,44,30.37,30.03,10,5,17,0.00
2012-12-7,41.0,37.5,34.0,39.0,33.6,21.0,100,87,55,30.04,29.93,8,4,0,0.00
2012-12-8,54.0,42.4,36.0,54.0,42.3,34.0,100,100,93,30.12,29.73,16,6,21,0.00
2012-12-9,43.0,35.8,30.0,43.0,34.5,30.0,100,95,86,30.28,29.78,13,7,22,0.00
2012-12-10,57.0,44.2,34.0,55.0,44.0,34.0,100,99,87,29.78,29.53,18,10,24,0.00
2012-12-11,34.0,30.7,28.0,34.0,30.7,28.0,100,100,100,30.16,29.71,10,4,17,0.00
2012-12-12,41.0,35.1,28.0,34.0,30.0,28.0,100,83,65,30.40,30.15,15,6,22,0.00
2012-12-13,48.0,35.0,28.0,30.0,28.0,27.0,100,78,45,30.43,30.20,7,2,0,0.00
2012-12-14,45.0,38.1,34.0,37.0,30.3,21.0,93,74,51,30.25,30.14,16,7,21,0.00
2012-12-15,41.0,37.0,32.0,39.0,34.9,32.0,100,91,80,30.29,29.99,13,5,17,0.00
2012-12-16,54.0,45.3,39.0,46.0,40.5,34.0,100,83,70,30.00,29.73,17,10,27,0.00
2012-12-17,46.0,46.0,45.0,46.0,46.0,45.0,100,100,100,29.73,29.69,13,4,22,0.00
2012-12-18,46.0,46.0,46.0,46.0,46.0,46.0,100,100,100,29.72,29.72,0,0,0,0.00
2012-12-19,46.0,46.0,46.0,46.0,46.0,46.0,100,100,100,29.72,29.72,0,0,0,0.00
2012-12-20,46.0,46.0,46.0,46.0,46.0,46.0,100,100,100,29.72,29.72,0,0,0,0.00
2012-12-21,46.0,46.0,46.0,46.0,46.0,46.0,100,100,100,29.72,29.72,0,0,0,0.00
2012-12-22,46.0,46.0,46.0,46.0,46.0,46.0,100,100,100,29.72,29.72,0,0,0,0.00
2012-12-23,46.0,46.0,46.0,46.0,46.0,46.0,100,100,100,29.72,29.72,0,0,0,0.00
2012-12-24,46.0,46.0,46.0,46.0,46.0,46.0,100,100,100,29.72,29.72,0,0,0,0.00
2012-12-25,46.0,46.0,46.0,46.0,46.0,46.0,100,100,100,29.72,29.72,0,0,0,0.00
2012-12-26,46.0,46.0,46.0,46.0,46.0,46.0,100,100,100,29.72,29.72,0,0,0,0.00
2012-12-27,46.0,46.0,46.0,46.0,46.0,46.0,100,100,100,29.72,29.72,0,0,0,0.00
2012-12-28,46.0,46.0,46.0,46.0,46.0,46.0,100,100,100,29.72,29.72,0,0,0,0.00
2012-12-29,46.0,46.0,46.0,46.0,46.0,46.0,100,100,100,29.72,29.72,0,0,0,0.00
2012-12-30,46.0,46.0,46.0,46.0,46.0,46.0,100,100,100,29.72,29.72,0,0,0,0.00
2012-12-31,46.0,46.0,46.0,46.0,46.0,46.0,100,100,100,29.72,29.72,0,0,0,0.00
2013-1-1,46.0,46.0,46.0,46.0,46.0,46.0,100,100,100,29.72,29.72,0,0,0,0.00